Time;durP1;ratioP1;P1;durP2;ratioP2;P2;SDS_P1;SDS_P2;PMS_P1;PMS_P2;Temp;Humidity;BMP_temperature;BMP_pressure;BME280_temperature;BME280_humidity;BME280_pressure;Samples;Min_cycle;Max_cycle;Signal;HPM_P1;HPM_P2
2022/10/29 00:00:50;;;;;;;;;;;14.90;99.90;;;;;;5076980;28;19961;-71
2022/10/29 00:03:15;;;;;;;;;;;14.90;99.90;;;;;;5076556;28;20293;-72
2022/10/29 00:05:41;;;;;;;;;;;14.90;99.90;;;;;;5076870;28;19919;-71
2022/10/29 00:08:06;;;;;;;;;;;14.90;99.90;;;;;;5094795;28;19908;-71
2022/10/29 00:10:31;;;;;;;;;;;14.90;99.90;;;;;;5094844;28;19912;-72
2022/10/29 00:13:01;;;;;;;;;;;14.90;99.90;;;;;;5094289;28;19908;-70
2022/10/29 00:15:26;;;;;;;;;;;14.80;99.90;;;;;;5076601;28;19908;-72
2022/10/29 00:17:52;;;;;;;;;;;14.90;99.90;;;;;;5059759;28;19962;-71
2022/10/29 00:20:19;;;;;;;;;;;14.90;99.90;;;;;;5076569;28;19931;-71
2022/10/29 00:22:45;;;;;;;;;;;14.90;99.90;;;;;;5076298;28;19908;-71
2022/10/29 00:25:10;;;;;;;;;;;14.90;99.90;;;;;;5076471;28;19916;-71
2022/10/29 00:27:36;;;;;;;;;;;14.80;99.90;;;;;;5059615;28;19966;-72
2022/10/29 00:30:02;;;;;;;;;;;14.80;99.90;;;;;;5076214;28;19915;-72
2022/10/29 00:32:27;;;;;;;;;;;14.80;99.90;;;;;;5076400;28;19908;-72
2022/10/29 00:34:52;;;;;;;;;;;14.70;99.90;;;;;;5076304;28;19912;-72
2022/10/29 00:37:18;;;;;;;;;;;14.80;99.90;;;;;;5076471;28;20384;-71
2022/10/29 00:39:43;;;;;;;;;;;14.70;99.90;;;;;;5094257;28;19907;-72
2022/10/29 00:42:16;;;;;;;;;;;14.70;99.90;;;;;;5094297;28;19962;-71
2022/10/29 00:44:42;;;;;;;;;;;14.70;99.90;;;;;;5094275;28;19916;-72
2022/10/29 00:47:25;;;;;;;;;;;14.70;99.90;;;;;;5094202;28;20014;-72
2022/10/29 00:49:53;;;;;;;;;;;14.60;99.90;;;;;;5075934;28;20400;-72
2022/10/29 00:52:20;;;;;;;;;;;14.60;99.90;;;;;;5075855;28;19908;-72
2022/10/29 00:54:46;;;;;;;;;;;14.60;99.90;;;;;;5094022;28;20326;-72
2022/10/29 00:57:16;;;;;;;;;;;14.60;99.90;;;;;;5076302;28;20358;-72
2022/10/29 00:59:42;;;;;;;;;;;14.50;99.90;;;;;;5094040;28;19919;-71
2022/10/29 01:02:08;;;;;;;;;;;14.50;99.90;;;;;;5076023;28;19908;-71
2022/10/29 01:04:34;;;;;;;;;;;14.50;99.90;;;;;;5072322;28;19927;-72
2022/10/29 01:07:00;;;;;;;;;;;14.50;99.90;;;;;;5072688;28;19908;-71
2022/10/29 01:09:25;;;;;;;;;;;14.50;99.90;;;;;;5106413;28;20023;-71
2022/10/29 01:12:00;;;;;;;;;;;14.50;99.90;;;;;;5072438;28;19964;-71
2022/10/29 01:14:45;;;;;;;;;;;14.50;99.90;;;;;;5072395;28;19909;-72
2022/10/29 01:17:31;;;;;;;;;;;14.50;99.90;;;;;;5073784;28;20385;-72
2022/10/29 01:20:16;;;;;;;;;;;14.50;99.90;;;;;;5073774;28;19908;-72
2022/10/29 01:22:49;;;;;;;;;;;14.50;99.90;;;;;;5073750;28;19977;-71
2022/10/29 01:25:34;;;;;;;;;;;14.50;99.90;;;;;;5075060;28;19966;-72
2022/10/29 01:28:19;;;;;;;;;;;14.50;99.90;;;;;;5077622;28;19947;-72
2022/10/29 01:31:05;;;;;;;;;;;14.50;99.90;;;;;;5077666;28;20305;-72
2022/10/29 01:33:36;;;;;;;;;;;14.50;99.90;;;;;;5076483;28;20336;-71
2022/10/29 01:36:21;;;;;;;;;;;14.50;99.90;;;;;;5110160;28;20293;-71
2022/10/29 01:38:52;;;;;;;;;;;14.50;99.90;;;;;;5076225;28;20267;-71
2022/10/29 01:41:22;;;;;;;;;;;14.40;99.90;;;;;;5077459;28;19908;-71
2022/10/29 01:44:08;;;;;;;;;;;14.50;99.90;;;;;;5092808;28;20008;-72
2022/10/29 01:46:37;;;;;;;;;;;14.40;99.90;;;;;;5075939;28;19935;-71
2022/10/29 01:49:06;;;;;;;;;;;14.40;99.90;;;;;;5076034;28;20289;-71
2022/10/29 01:51:33;;;;;;;;;;;14.40;99.90;;;;;;5077224;28;19913;-72
2022/10/29 01:53:59;;;;;;;;;;;14.40;99.90;;;;;;5109878;28;19909;-71
2022/10/29 01:56:25;;;;;;;;;;;14.30;99.90;;;;;;5077080;28;19946;-72
2022/10/29 01:58:52;;;;;;;;;;;14.30;99.90;;;;;;5092625;28;20052;-71
2022/10/29 02:01:37;;;;;;;;;;;14.30;99.90;;;;;;5077381;28;19916;-71
2022/10/29 02:04:12;;;;;;;;;;;14.30;99.90;;;;;;5089584;28;19920;-71
2022/10/29 02:06:44;;;;;;;;;;;14.20;99.90;;;;;;5079113;28;19908;-71
2022/10/29 02:09:15;;;;;;;;;;;14.20;99.90;;;;;;5062789;28;19908;-72
2022/10/29 02:11:50;;;;;;;;;;;14.20;99.90;;;;;;5079178;28;20438;-72
2022/10/29 02:14:19;;;;;;;;;;;14.10;99.90;;;;;;5079194;28;20373;-72
2022/10/29 02:16:45;;;;;;;;;;;14.20;99.90;;;;;;5097303;28;19915;-71
2022/10/29 02:19:10;;;;;;;;;;;14.10;99.90;;;;;;5097034;28;19908;-72
2022/10/29 02:21:36;;;;;;;;;;;14.10;99.90;;;;;;5078835;28;19998;-71
2022/10/29 02:24:01;;;;;;;;;;;14.10;99.90;;;;;;5078928;28;20262;-71
2022/10/29 02:26:27;;;;;;;;;;;14.10;99.90;;;;;;5078715;28;19908;-71
2022/10/29 02:28:52;;;;;;;;;;;14.00;99.90;;;;;;5078929;28;19908;-71
2022/10/29 02:31:18;;;;;;;;;;;14.00;99.90;;;;;;5078568;28;19908;-72
2022/10/29 02:33:43;;;;;;;;;;;14.00;99.90;;;;;;5078759;28;19908;-71
2022/10/29 02:36:09;;;;;;;;;;;14.00;99.90;;;;;;5078174;28;20365;-71
2022/10/29 02:38:34;;;;;;;;;;;13.90;99.90;;;;;;5061976;28;20060;-71
2022/10/29 02:41:00;;;;;;;;;;;13.80;99.90;;;;;;5096703;28;19908;-72
2022/10/29 02:43:25;;;;;;;;;;;13.80;99.90;;;;;;5096425;28;19912;-71
2022/10/29 02:46:08;;;;;;;;;;;13.70;99.90;;;;;;5096754;28;19920;-71
2022/10/29 02:48:33;;;;;;;;;;;13.70;99.90;;;;;;5096536;28;19908;-71
2022/10/29 02:50:59;;;;;;;;;;;13.60;99.90;;;;;;5096691;28;20105;-71
2022/10/29 02:53:24;;;;;;;;;;;13.60;99.90;;;;;;5061813;28;19912;-72
2022/10/29 02:55:50;;;;;;;;;;;13.50;99.90;;;;;;5096396;28;19908;-71
2022/10/29 02:58:15;;;;;;;;;;;13.50;99.90;;;;;;5078581;28;19908;-72
2022/10/29 03:00:41;;;;;;;;;;;13.40;99.90;;;;;;5096165;28;20027;-71
2022/10/29 03:03:06;;;;;;;;;;;13.40;99.90;;;;;;5095951;28;19916;-71
2022/10/29 03:05:31;;;;;;;;;;;13.40;99.90;;;;;;5078093;28;19912;-71
2022/10/29 03:07:57;;;;;;;;;;;13.40;99.90;;;;;;5096255;28;19915;-71
2022/10/29 03:10:22;;;;;;;;;;;13.40;99.90;;;;;;5077813;28;19908;-72
2022/10/29 03:12:48;;;;;;;;;;;13.40;99.90;;;;;;5096292;28;19908;-71
2022/10/29 03:15:13;;;;;;;;;;;13.20;99.90;;;;;;5062079;28;19955;-71
2022/10/29 03:17:39;;;;;;;;;;;13.20;99.90;;;;;;5061112;28;20274;-71
2022/10/29 03:20:04;;;;;;;;;;;13.20;99.90;;;;;;5096077;28;19954;-71
2022/10/29 03:22:30;;;;;;;;;;;13.20;99.90;;;;;;5077878;28;19908;-71
2022/10/29 03:24:55;;;;;;;;;;;13.20;99.90;;;;;;5077733;28;19912;-72
2022/10/29 03:27:21;;;;;;;;;;;13.20;99.90;;;;;;5095941;28;19912;-71
2022/10/29 03:29:46;;;;;;;;;;;13.20;99.90;;;;;;5077810;28;19930;-71
2022/10/29 03:32:12;;;;;;;;;;;13.20;99.90;;;;;;5095484;28;19950;-72
2022/10/29 03:34:37;;;;;;;;;;;13.30;99.90;;;;;;5095713;28;19913;-71
2022/10/29 03:37:03;;;;;;;;;;;13.30;99.90;;;;;;5095566;28;20385;-72
2022/10/29 03:39:28;;;;;;;;;;;13.40;99.90;;;;;;5095568;28;20319;-71
2022/10/29 03:41:54;;;;;;;;;;;13.40;99.90;;;;;;5095465;28;19909;-71
2022/10/29 03:44:19;;;;;;;;;;;13.50;99.90;;;;;;5077677;28;19912;-72
2022/10/29 03:46:44;;;;;;;;;;;13.50;99.90;;;;;;5077456;28;19915;-71
2022/10/29 03:49:10;;;;;;;;;;;13.50;99.90;;;;;;5059710;28;19955;-71
2022/10/29 03:51:35;;;;;;;;;;;13.40;99.90;;;;;;5095387;28;19915;-71
2022/10/29 03:54:01;;;;;;;;;;;13.40;99.90;;;;;;5077153;28;19935;-71
2022/10/29 03:56:26;;;;;;;;;;;13.40;99.90;;;;;;5077295;28;19908;-71
2022/10/29 03:58:52;;;;;;;;;;;13.40;99.90;;;;;;5060453;28;20011;-71
2022/10/29 04:01:17;;;;;;;;;;;13.30;99.90;;;;;;5077043;28;19958;-71
2022/10/29 04:03:43;;;;;;;;;;;13.30;99.90;;;;;;5060263;28;20345;-71
2022/10/29 04:06:10;;;;;;;;;;;13.30;99.90;;;;;;5095001;28;19916;-72
2022/10/29 04:08:36;;;;;;;;;;;13.30;99.90;;;;;;5060203;28;20354;-71
2022/10/29 04:11:01;;;;;;;;;;;13.20;99.90;;;;;;5094940;28;19958;-71
2022/10/29 04:13:27;;;;;;;;;;;13.10;99.90;;;;;;5094959;28;19908;-71
2022/10/29 04:15:53;;;;;;;;;;;13.10;99.90;;;;;;5076847;28;20258;-70
2022/10/29 04:18:19;;;;;;;;;;;13.10;99.90;;;;;;5095217;28;19915;-71
2022/10/29 04:20:44;;;;;;;;;;;13.10;99.90;;;;;;5060106;28;19908;-71
2022/10/29 04:23:10;;;;;;;;;;;13.10;99.90;;;;;;5076512;28;19912;-71
2022/10/29 04:25:35;;;;;;;;;;;13.10;99.90;;;;;;5059986;28;19931;-72
2022/10/29 04:28:01;;;;;;;;;;;13.00;99.90;;;;;;5076659;28;19912;-71
2022/10/29 04:30:26;;;;;;;;;;;13.00;99.90;;;;;;5076642;28;19908;-72
2022/10/29 04:32:56;;;;;;;;;;;13.00;99.90;;;;;;5076673;28;19915;-71
2022/10/29 04:35:22;;;;;;;;;;;13.00;99.90;;;;;;5076446;28;19912;-71
2022/10/29 04:37:47;;;;;;;;;;;13.00;99.90;;;;;;5094566;28;19966;-72
2022/10/29 04:40:13;;;;;;;;;;;12.90;99.90;;;;;;5094540;28;19938;-71
2022/10/29 04:42:38;;;;;;;;;;;12.80;99.90;;;;;;5094606;28;20011;-71
2022/10/29 04:45:04;;;;;;;;;;;12.90;99.90;;;;;;5094659;28;19912;-71
2022/10/29 04:47:30;;;;;;;;;;;12.90;99.90;;;;;;5076238;28;20393;-71
2022/10/29 04:49:56;;;;;;;;;;;12.80;99.90;;;;;;5094775;28;19915;-72
2022/10/29 04:52:21;;;;;;;;;;;12.80;99.90;;;;;;5076355;28;20006;-72
2022/10/29 04:54:47;;;;;;;;;;;12.80;99.90;;;;;;5076516;28;19908;-71
2022/10/29 04:57:12;;;;;;;;;;;12.80;99.90;;;;;;5076048;28;19915;-71
2022/10/29 04:59:37;;;;;;;;;;;13.00;99.90;;;;;;5059233;28;19908;-71
2022/10/29 05:02:03;;;;;;;;;;;13.20;99.90;;;;;;5094268;28;19993;-71
2022/10/29 05:04:28;;;;;;;;;;;13.20;99.90;;;;;;5094194;28;19973;-71
2022/10/29 05:06:54;;;;;;;;;;;13.30;99.90;;;;;;5060007;28;19908;-71
2022/10/29 05:09:20;;;;;;;;;;;13.30;99.90;;;;;;5059331;28;20286;-72
2022/10/29 05:11:45;;;;;;;;;;;13.20;99.90;;;;;;5094208;28;19956;-71
2022/10/29 05:14:11;;;;;;;;;;;13.20;99.90;;;;;;5076347;28;19912;-72
2022/10/29 05:16:36;;;;;;;;;;;13.20;99.90;;;;;;5076363;28;19908;-71
2022/10/29 05:19:02;;;;;;;;;;;13.20;99.90;;;;;;5076158;28;20376;-72
2022/10/29 05:21:28;;;;;;;;;;;13.10;99.90;;;;;;5076287;28;19915;-71
2022/10/29 05:23:53;;;;;;;;;;;13.10;99.90;;;;;;5059271;28;19916;-72
2022/10/29 05:26:19;;;;;;;;;;;13.10;99.90;;;;;;5076492;28;20362;-71
2022/10/29 05:28:44;;;;;;;;;;;13.10;99.90;;;;;;5076226;28;19908;-71
2022/10/29 05:31:09;;;;;;;;;;;13.10;99.90;;;;;;5075986;28;19959;-72
2022/10/29 05:33:35;;;;;;;;;;;13.00;99.90;;;;;;5059293;28;19908;-71
2022/10/29 05:36:00;;;;;;;;;;;13.00;99.90;;;;;;5094123;28;19915;-71
2022/10/29 05:38:26;;;;;;;;;;;12.90;99.90;;;;;;5094200;28;19948;-71
2022/10/29 05:40:52;;;;;;;;;;;12.90;99.90;;;;;;5076313;28;19919;-72
2022/10/29 05:43:17;;;;;;;;;;;12.80;99.90;;;;;;5094045;28;19908;-71
2022/10/29 05:45:43;;;;;;;;;;;12.70;99.90;;;;;;5075989;28;20408;-72
2022/10/29 05:48:09;;;;;;;;;;;12.70;99.90;;;;;;5059205;28;19908;-71
2022/10/29 05:50:34;;;;;;;;;;;12.80;99.90;;;;;;5076055;28;20320;-71
2022/10/29 05:53:02;;;;;;;;;;;12.90;99.90;;;;;;5076047;28;19974;-71
2022/10/29 05:55:28;;;;;;;;;;;12.90;99.90;;;;;;5075685;28;19999;-70
2022/10/29 05:57:54;;;;;;;;;;;13.00;99.90;;;;;;5076640;28;20296;-71
2022/10/29 06:00:20;;;;;;;;;;;13.10;99.90;;;;;;5059505;28;19909;-71
2022/10/29 06:02:45;;;;;;;;;;;13.10;99.90;;;;;;5094101;28;20279;-70
2022/10/29 06:05:11;;;;;;;;;;;13.10;99.90;;;;;;5059335;28;19978;-71
2022/10/29 06:07:36;;;;;;;;;;;13.20;99.90;;;;;;5094465;28;19915;-71
2022/10/29 06:10:02;;;;;;;;;;;13.30;99.90;;;;;;5076138;28;19981;-71
2022/10/29 06:12:30;;;;;;;;;;;13.30;99.90;;;;;;5062753;28;19908;-72
2022/10/29 06:14:56;;;;;;;;;;;13.30;99.90;;;;;;5079419;28;20266;-71
2022/10/29 06:17:21;;;;;;;;;;;13.30;99.90;;;;;;5079077;28;19912;-71
2022/10/29 06:19:47;;;;;;;;;;;13.30;99.90;;;;;;5062930;28;19908;-70
2022/10/29 06:22:12;;;;;;;;;;;13.30;99.90;;;;;;5079619;28;19958;-70
2022/10/29 06:24:38;;;;;;;;;;;13.30;99.90;;;;;;5079673;28;20384;-70
2022/10/29 06:27:03;;;;;;;;;;;13.30;99.90;;;;;;5079756;28;20357;-71
2022/10/29 06:29:29;;;;;;;;;;;13.30;99.90;;;;;;5079245;28;19915;-71
2022/10/29 06:31:54;;;;;;;;;;;13.30;99.90;;;;;;5097584;28;19909;-71
2022/10/29 06:34:20;;;;;;;;;;;13.30;99.90;;;;;;5097886;28;20389;-72
2022/10/29 06:36:46;;;;;;;;;;;13.30;99.90;;;;;;5079035;28;19908;-73
2022/10/29 06:39:11;;;;;;;;;;;13.40;99.90;;;;;;5062987;28;19961;-71
2022/10/29 06:41:37;;;;;;;;;;;13.40;99.90;;;;;;5078823;28;19995;-72
2022/10/29 06:44:02;;;;;;;;;;;13.40;99.90;;;;;;5078644;28;19916;-71
2022/10/29 06:46:28;;;;;;;;;;;13.40;99.90;;;;;;5097046;28;19912;-72
2022/10/29 06:48:53;;;;;;;;;;;13.50;99.90;;;;;;5096794;28;19917;-71
2022/10/29 06:51:18;;;;;;;;;;;13.50;99.90;;;;;;5078580;28;19947;-71
2022/10/29 06:53:44;;;;;;;;;;;13.50;99.90;;;;;;5096833;28;19912;-71
2022/10/29 06:56:10;;;;;;;;;;;13.50;99.90;;;;;;5078836;28;19957;-71
2022/10/29 06:58:35;;;;;;;;;;;13.60;99.90;;;;;;5078434;28;19915;-71
2022/10/29 07:01:01;;;;;;;;;;;13.60;99.90;;;;;;5096555;28;19912;-71
2022/10/29 07:03:26;;;;;;;;;;;13.70;99.90;;;;;;5096074;28;20015;-71
2022/10/29 07:05:55;;;;;;;;;;;13.70;99.90;;;;;;5061700;28;19912;-71
2022/10/29 07:08:21;;;;;;;;;;;13.70;99.90;;;;;;5078323;28;19954;-71
2022/10/29 07:10:49;;;;;;;;;;;13.70;99.90;;;;;;5062373;28;19912;-71
2022/10/29 07:13:14;;;;;;;;;;;13.80;99.90;;;;;;5096172;28;19908;-71
2022/10/29 07:15:40;;;;;;;;;;;13.90;99.90;;;;;;5096726;28;20399;-71
2022/10/29 07:18:07;;;;;;;;;;;13.90;99.90;;;;;;5077767;28;20277;-71
2022/10/29 07:20:33;;;;;;;;;;;14.10;99.90;;;;;;5077975;28;20003;-72
2022/10/29 07:23:00;;;;;;;;;;;14.10;99.90;;;;;;5061073;28;19957;-72
2022/10/29 07:25:26;;;;;;;;;;;14.20;99.90;;;;;;5077892;28;19912;-71
2022/10/29 07:27:51;;;;;;;;;;;14.30;99.90;;;;;;5077964;28;19919;-71
2022/10/29 07:30:17;;;;;;;;;;;14.40;99.90;;;;;;5095892;28;20273;-71
2022/10/29 07:32:42;;;;;;;;;;;14.50;99.90;;;;;;5096256;28;19962;-72
2022/10/29 07:35:08;;;;;;;;;;;14.60;99.90;;;;;;5095785;28;19963;-71
2022/10/29 07:37:33;;;;;;;;;;;14.60;99.90;;;;;;5095774;28;19908;-71
2022/10/29 07:39:59;;;;;;;;;;;14.70;99.90;;;;;;5061117;28;19908;-71
2022/10/29 07:42:24;;;;;;;;;;;14.90;99.90;;;;;;5077808;28;20268;-72
2022/10/29 07:44:50;;;;;;;;;;;14.90;99.90;;;;;;5095764;28;19913;-72
2022/10/29 07:47:15;;;;;;;;;;;15.00;99.90;;;;;;5095477;28;19914;-71
2022/10/29 07:49:41;;;;;;;;;;;15.10;99.90;;;;;;5060917;28;19923;-71
2022/10/29 07:52:06;;;;;;;;;;;15.20;99.90;;;;;;5095363;28;19951;-71
2022/10/29 07:54:32;;;;;;;;;;;15.30;99.90;;;;;;5060548;28;19920;-72
2022/10/29 07:56:57;;;;;;;;;;;15.40;99.90;;;;;;5077092;28;19908;-71
2022/10/29 07:59:23;;;;;;;;;;;15.50;99.90;;;;;;5077576;28;20279;-72
2022/10/29 08:01:48;;;;;;;;;;;15.60;99.90;;;;;;5095369;28;19908;-71
2022/10/29 08:04:14;;;;;;;;;;;15.60;99.90;;;;;;5076728;28;20423;-72
2022/10/29 08:06:39;;;;;;;;;;;15.60;99.90;;;;;;5095138;28;19908;-72
2022/10/29 08:09:05;;;;;;;;;;;15.60;99.90;;;;;;5095443;28;19951;-71
2022/10/29 08:11:31;;;;;;;;;;;15.60;99.90;;;;;;5095054;28;19914;-71
2022/10/29 08:13:57;;;;;;;;;;;15.70;99.90;;;;;;5095565;28;19916;-72
2022/10/29 08:16:22;;;;;;;;;;;15.70;99.90;;;;;;5095660;28;19934;-72
2022/10/29 08:18:47;;;;;;;;;;;15.70;99.90;;;;;;5095165;28;19912;-72
2022/10/29 08:21:14;;;;;;;;;;;15.80;99.90;;;;;;5094685;28;20003;-71
2022/10/29 08:23:39;;;;;;;;;;;16.00;99.90;;;;;;5076989;28;20449;-72
2022/10/29 08:26:05;;;;;;;;;;;16.20;99.90;;;;;;5076914;28;19939;-72
2022/10/29 08:28:30;;;;;;;;;;;16.30;99.90;;;;;;5077141;28;20362;-72
2022/10/29 08:30:56;;;;;;;;;;;16.40;99.90;;;;;;5095251;28;19908;-72
2022/10/29 08:33:21;;;;;;;;;;;16.50;99.90;;;;;;5059479;28;20004;-72
2022/10/29 08:35:47;;;;;;;;;;;16.60;99.90;;;;;;5076389;28;19957;-72
2022/10/29 08:38:12;;;;;;;;;;;16.90;99.90;;;;;;5059752;28;20376;-72
2022/10/29 08:40:52;;;;;;;;;;;17.00;99.90;;;;;;5094828;28;19961;-72
2022/10/29 08:43:24;;;;;;;;;;;17.10;99.90;;;;;;5076627;28;20007;-72
2022/10/29 08:45:51;;;;;;;;;;;17.20;99.90;;;;;;5094827;28;19931;-72
2022/10/29 08:51:16;;;;;;;;;;;17.50;99.90;;;;;;5066086;22;19925;-72
2022/10/29 08:53:43;;;;;;;;;;;17.70;99.90;;;;;;5033109;28;19993;-73
2022/10/29 08:56:15;;;;;;;;;;;18.00;99.90;;;;;;5050870;28;19916;-73
2022/10/29 08:59:00;;;;;;;;;;;18.10;99.90;;;;;;5050807;28;20284;-73
2022/10/29 09:01:26;;;;;;;;;;;18.30;99.90;;;;;;5050677;28;20390;-73
2022/10/29 09:03:51;;;;;;;;;;;18.60;99.90;;;;;;5033016;28;19916;-73
2022/10/29 09:06:24;;;;;;;;;;;18.70;99.90;;;;;;5050688;28;19916;-73
2022/10/29 09:11:55;;;;;;;;;;;19.10;99.90;;;;;;5091370;27;19912;-72
2022/10/29 09:14:36;;;;;;;;;;;19.40;99.90;;;;;;5091305;28;19912;-72
2022/10/29 09:17:08;;;;;;;;;;;19.50;99.90;;;;;;5091071;28;19908;-72
2022/10/29 09:19:47;;;;;;;;;;;19.50;99.90;;;;;;5091045;28;19908;-72
2022/10/29 09:22:18;;;;;;;;;;;19.70;99.90;;;;;;5091007;28;19908;-70
2022/10/29 09:24:49;;;;;;;;;;;19.90;99.90;;;;;;5090997;28;20007;-71
2022/10/29 09:27:21;;;;;;;;;;;19.90;99.90;;;;;;5090881;28;19915;-71
2022/10/29 09:29:52;;;;;;;;;;;19.90;99.90;;;;;;5090762;28;19916;-72
2022/10/29 09:32:21;;;;;;;;;;;20.00;99.90;;;;;;5090749;28;19931;-72
2022/10/29 09:34:49;;;;;;;;;;;20.10;99.90;;;;;;5090589;28;20013;-72
2022/10/29 09:37:16;;;;;;;;;;;20.20;99.90;;;;;;5090902;28;19915;-71
2022/10/29 09:39:43;;;;;;;;;;;20.60;99.90;;;;;;5090615;28;19908;-72
2022/10/29 09:42:12;;;;;;;;;;;20.80;99.90;;;;;;5090531;28;19909;-72
2022/10/29 09:44:42;;;;;;;;;;;20.80;99.90;;;;;;5090506;28;19908;-72
2022/10/29 09:47:15;;;;;;;;;;;20.80;99.90;;;;;;5090740;28;19909;-72
2022/10/29 09:50:02;;;;;;;;;;;20.70;99.90;;;;;;5090321;28;19912;-72
2022/10/29 09:52:31;;;;;;;;;;;20.70;99.90;;;;;;5090373;28;19913;-72
2022/10/29 09:54:58;;;;;;;;;;;21.10;99.90;;;;;;5123148;28;19913;-72
2022/10/29 09:57:25;;;;;;;;;;;21.40;99.90;;;;;;5090318;28;20003;-72
2022/10/29 09:59:56;;;;;;;;;;;21.50;99.90;;;;;;5090218;28;19957;-72
2022/10/29 10:02:31;;;;;;;;;;;21.50;99.90;;;;;;5090225;28;19908;-72
2022/10/29 10:05:04;;;;;;;;;;;21.70;99.90;;;;;;5088878;28;19974;-72
2022/10/29 10:07:30;;;;;;;;;;;21.90;99.90;;;;;;5090113;28;19958;-73
2022/10/29 10:09:57;;;;;;;;;;;22.00;99.90;;;;;;5096437;28;19919;-72
2022/10/29 10:12:24;;;;;;;;;;;22.10;99.90;;;;;;5110421;28;19910;-72
2022/10/29 10:15:00;;;;;;;;;;;22.40;99.90;;;;;;5110382;28;19915;-72
2022/10/29 10:17:26;;;;;;;;;;;22.80;99.90;;;;;;5110274;28;19908;-72
2022/10/29 10:19:51;;;;;;;;;;;23.40;99.90;;;;;;5110190;28;19930;-72
2022/10/29 10:22:19;;;;;;;;;;;23.60;99.90;;;;;;5100267;28;19973;-72
2022/10/29 10:24:44;;;;;;;;;;;23.60;99.90;;;;;;5078559;28;19908;-72
2022/10/29 10:30:10;;;;;;;;;;;23.70;99.90;;;;;;5091144;27;19912;-74
2022/10/29 10:32:35;;;;;;;;;;;23.60;99.90;;;;;;5106723;28;19918;-74
2022/10/29 10:35:01;;;;;;;;;;;23.80;99.90;;;;;;5091067;28;20002;-74
2022/10/29 10:37:29;;;;;;;;;;;23.50;99.90;;;;;;5091013;28;19908;-74
2022/10/29 10:40:00;;;;;;;;;;;23.30;99.90;;;;;;5123927;28;19920;-74
2022/10/29 10:42:29;;;;;;;;;;;22.70;99.90;;;;;;5090858;28;20002;-74
2022/10/29 10:45:00;;;;;;;;;;;22.40;99.90;;;;;;5090797;28;19908;-74
2022/10/29 10:47:27;;;;;;;;;;;22.20;99.90;;;;;;5090605;28;20003;-74
2022/10/29 10:49:52;;;;;;;;;;;22.20;99.90;;;;;;5123724;28;19912;-74
2022/10/29 10:52:25;;;;;;;;;;;22.60;99.90;;;;;;5089458;28;19908;-73
2022/10/29 10:54:59;;;;;;;;;;;23.50;99.90;;;;;;5090708;28;19908;-74
2022/10/29 10:57:27;;;;;;;;;;;24.00;99.90;;;;;;5090660;28;19957;-73
2022/10/29 10:59:56;;;;;;;;;;;24.50;99.90;;;;;;5090605;28;19929;-74
2022/10/29 11:02:32;;;;;;;;;;;25.00;99.90;;;;;;5090535;28;19908;-74
2022/10/29 11:05:01;;;;;;;;;;;24.80;99.90;;;;;;5090421;28;19909;-74
2022/10/29 11:07:31;;;;;;;;;;;24.10;99.90;;;;;;5088966;28;19908;-74
2022/10/29 11:09:58;;;;;;;;;;;23.60;99.90;;;;;;5090291;28;19909;-74
2022/10/29 11:12:28;;;;;;;;;;;23.00;99.90;;;;;;5090321;28;19931;-74
2022/10/29 11:14:59;;;;;;;;;;;22.80;99.90;;;;;;5090350;28;20003;-74
2022/10/29 11:17:26;;;;;;;;;;;22.80;99.90;;;;;;5090333;28;20351;-74
2022/10/29 11:19:54;;;;;;;;;;;22.90;99.90;;;;;;5090285;28;19916;-74
2022/10/29 11:22:25;;;;;;;;;;;23.00;99.90;;;;;;5090199;28;20427;-74
2022/10/29 11:25:10;;;;;;;;;;;23.10;99.90;;;;;;5090188;28;19909;-75
2022/10/29 11:27:41;;;;;;;;;;;23.30;99.90;;;;;;5089413;28;19909;-72
2022/10/29 11:30:11;;;;;;;;;;;23.50;99.90;;;;;;5110420;28;19958;-74
2022/10/29 11:32:50;;;;;;;;;;;23.10;99.90;;;;;;5110389;28;20293;-75
2022/10/29 11:35:26;;;;;;;;;;;23.20;99.90;;;;;;5110358;28;20370;-73
2022/10/29 11:37:57;;;;;;;;;;;23.60;99.90;;;;;;5092184;28;19908;-74
2022/10/29 11:40:27;;;;;;;;;;;23.60;99.90;;;;;;5083465;28;20406;-74
2022/10/29 11:42:53;;;;;;;;;;;23.40;99.90;;;;;;5096548;28;19908;-73
2022/10/29 11:45:26;;;;;;;;;;;23.60;99.90;;;;;;5096513;28;19964;-74
2022/10/29 11:48:02;;;;;;;;;;;23.60;99.90;;;;;;5096394;28;19916;-74
2022/10/29 11:50:47;;;;;;;;;;;23.60;99.90;;;;;;5096443;28;19908;-75
2022/10/29 11:53:19;;;;;;;;;;;23.60;99.90;;;;;;5078189;28;19908;-73
2022/10/29 11:55:52;;;;;;;;;;;23.70;99.90;;;;;;5096275;28;20379;-71
2022/10/29 11:58:22;;;;;;;;;;;23.60;99.90;;;;;;5078051;28;19912;-73
2022/10/29 12:00:56;;;;;;;;;;;23.60;99.90;;;;;;5096245;28;20335;-72
2022/10/29 12:03:44;;;;;;;;;;;23.70;99.90;;;;;;5096076;28;19995;-74
2022/10/29 12:09:16;;;;;;;;;;;23.60;99.90;;;;;;5066928;22;19931;-73
2022/10/29 12:11:52;;;;;;;;;;;23.80;99.90;;;;;;5053006;28;19913;-73
2022/10/29 12:14:28;;;;;;;;;;;23.80;99.90;;;;;;5034418;28;20321;-73
2022/10/29 12:17:08;;;;;;;;;;;24.00;99.90;;;;;;5017635;28;19913;-73
2022/10/29 12:19:41;;;;;;;;;;;23.90;99.90;;;;;;5034061;28;19909;-73
2022/10/29 12:22:15;;;;;;;;;;;23.90;99.90;;;;;;5033551;28;19916;-73
2022/10/29 12:24:47;;;;;;;;;;;23.90;99.90;;;;;;5033777;28;19916;-73
2022/10/29 12:27:18;;;;;;;;;;;24.00;99.90;;;;;;5033972;28;19960;-73
2022/10/29 12:29:50;;;;;;;;;;;24.10;99.90;;;;;;5034414;28;19916;-73
2022/10/29 12:32:21;;;;;;;;;;;24.10;99.90;;;;;;5051307;28;20025;-73
2022/10/29 12:35:01;;;;;;;;;;;24.20;99.90;;;;;;5017302;28;19909;-72
2022/10/29 12:37:47;;;;;;;;;;;24.20;99.90;;;;;;5017656;28;19913;-73
2022/10/29 12:40:16;;;;;;;;;;;24.30;99.90;;;;;;5033121;28;19913;-73
2022/10/29 12:42:42;;;;;;;;;;;24.50;99.90;;;;;;5050678;28;20393;-73
2022/10/29 12:45:22;;;;;;;;;;;24.30;99.90;;;;;;5051007;28;19909;-73
2022/10/29 12:47:53;;;;;;;;;;;24.40;99.90;;;;;;5032884;28;20034;-73
2022/10/29 12:50:39;;;;;;;;;;;24.40;99.90;;;;;;5016897;28;19909;-73
2022/10/29 12:53:13;;;;;;;;;;;24.20;99.90;;;;;;5050896;28;19913;-73
2022/10/29 12:55:39;;;;;;;;;;;24.30;99.90;;;;;;5017408;28;19960;-73
2022/10/29 12:58:24;;;;;;;;;;;24.30;99.90;;;;;;5016872;28;19909;-73
2022/10/29 13:00:49;;;;;;;;;;;24.10;99.90;;;;;;5051295;28;19910;-73
2022/10/29 13:03:35;;;;;;;;;;;24.10;99.90;;;;;;5033090;28;19962;-72
2022/10/29 13:06:20;;;;;;;;;;;24.10;99.90;;;;;;5050834;28;20306;-72
2022/10/29 13:08:54;;;;;;;;;;;24.00;99.90;;;;;;5050278;28;19959;-72
2022/10/29 13:11:23;;;;;;;;;;;23.90;99.90;;;;;;5050329;28;19956;-72
2022/10/29 13:13:51;;;;;;;;;;;23.80;99.90;;;;;;5032873;28;20325;-73
2022/10/29 13:16:20;;;;;;;;;;;23.60;99.90;;;;;;5033509;28;19963;-73
2022/10/29 13:19:03;;;;;;;;;;;23.60;99.90;;;;;;5012224;28;19909;-73
2022/10/29 13:21:49;;;;;;;;;;;23.60;99.90;;;;;;5037189;28;19932;-73
2022/10/29 13:24:15;;;;;;;;;;;23.60;99.90;;;;;;5037238;28;19913;-73
2022/10/29 13:26:57;;;;;;;;;;;23.70;99.90;;;;;;5036931;28;20318;-73
2022/10/29 13:29:39;;;;;;;;;;;23.70;99.90;;;;;;5037347;28;19913;-73
2022/10/29 13:32:05;;;;;;;;;;;23.60;99.90;;;;;;5019543;28;19913;-73
2022/10/29 13:34:51;;;;;;;;;;;23.60;99.90;;;;;;5036787;28;20497;-74
2022/10/29 13:37:37;;;;;;;;;;;23.60;99.90;;;;;;5036565;28;19948;-73
2022/10/29 13:40:22;;;;;;;;;;;23.50;99.90;;;;;;5036519;28;19956;-73
2022/10/29 13:42:53;;;;;;;;;;;23.60;99.90;;;;;;5036557;28;20004;-73
2022/10/29 13:45:18;;;;;;;;;;;23.60;99.90;;;;;;5036838;28;19924;-72
2022/10/29 13:47:44;;;;;;;;;;;23.60;99.90;;;;;;5019065;28;19913;-73
2022/10/29 13:50:13;;;;;;;;;;;23.70;99.90;;;;;;5002616;28;19917;-73
2022/10/29 13:52:39;;;;;;;;;;;23.80;99.90;;;;;;5036342;28;19909;-72
2022/10/29 13:55:06;;;;;;;;;;;23.70;99.90;;;;;;5018532;28;20015;-73
2022/10/29 13:57:43;;;;;;;;;;;23.60;99.90;;;;;;5018679;28;19909;-73
2022/10/29 14:00:12;;;;;;;;;;;23.60;99.90;;;;;;5036248;28;19909;-73
2022/10/29 14:05:25;;;;;;;;;;;23.60;99.90;;;;;;5066109;22;19932;-73
2022/10/29 14:07:55;;;;;;;;;;;23.50;99.90;;;;;;5050976;28;19920;-74
2022/10/29 14:10:23;;;;;;;;;;;23.50;99.90;;;;;;5050907;28;19909;-74
2022/10/29 14:12:52;;;;;;;;;;;23.50;99.90;;;;;;5050851;28;20450;-74
2022/10/29 14:15:18;;;;;;;;;;;23.50;99.90;;;;;;5050781;28;19913;-73
2022/10/29 14:17:43;;;;;;;;;;;23.50;99.90;;;;;;5050729;28;20260;-74
2022/10/29 14:20:26;;;;;;;;;;;23.60;99.90;;;;;;5032924;28;20315;-74
2022/10/29 14:22:51;;;;;;;;;;;23.60;99.90;;;;;;5050571;28;19996;-75
2022/10/29 14:25:34;;;;;;;;;;;23.70;99.90;;;;;;5032927;28;20349;-73
2022/10/29 14:28:21;;;;;;;;;;;23.60;99.90;;;;;;5050599;28;19971;-75
2022/10/29 14:30:47;;;;;;;;;;;23.60;99.90;;;;;;5050489;28;20298;-74
2022/10/29 14:33:17;;;;;;;;;;;23.50;99.90;;;;;;5050552;28;19993;-74
2022/10/29 14:35:43;;;;;;;;;;;23.40;99.90;;;;;;5050493;28;19909;-75
2022/10/29 14:38:10;;;;;;;;;;;23.30;99.90;;;;;;5050350;28;19916;-74
2022/10/29 14:40:35;;;;;;;;;;;23.10;99.90;;;;;;5050345;28;19941;-74